Главная страница
METAR-TAF:

METAR-TAF

Аэропорты :

Папа, Венгрия

широта: 47-12N, долгота: 017-30E, высота над уровнем моря: 145 м

Текущие метеонаблюдения

Эта сводка был подготовлена 46 минут назад, в 04:45 UTC
Ветер 4 Узел от северный
Температура 4°C
Влажность 70%
Давление 1023 hPa
Видимость 10 км и более
Нет облачности ниже 1500 м, и нет кучево-дождевой облачности

METAR: LHPA 190445Z 01004KT CAVOK 04/M01 Q1023 NOSIG RMK BLU

Время: 06:31 (05:31 UTC)

Прогноз

Эта сводка был подготовлена 6 часа и 16 минут назад, в 23:15 UTC
Прогноз действительный с 19-го 00 UTC до 19-го 24 UTC
Ветер 9 Узел от северно-северо-западный
Видимость 10 км и более
Нет облачности ниже 1500 м, и нет кучево-дождевой облачности
изменения
С 19-го 16 UTC до 19-го 19 UTC
Ветер 5 Узел от северный

TAF: LHPA 182315Z 1900/1924 34009KT CAVOK BECMG 1916/1919 36005KT

Метеонаблюдения и прогнозы для более 4000 аэропортов (сводки METAR и TAF).

Имеющиеся станции представлены на карте желтыми и красными точками.

Чтобы увидеть название станции, наведите на нее мышь.

Затем щелкните, чтобы увидеть метеонаблюдения и метеопрогнозы.

Управление картой: чтобы увеличить масштаб, щелкните зеленые кнопки с черным крестиком; чтобы уменьшить масштаб, щелкните зеленую кнопку с тире; для просмотра соседних карт щелкайте зеленые стрелки.


METAR-TAF: